Marten — 5BNU3 — position and weather

sailwx.info

Track history (hours):
 
Tides and Currents Weather Stations Pressure Air Temp Water Temp Dewpoint Dewpoint Depression Visibility Wind Speed Wind Dir Waves Ship Positions

Marten

Last reported at 2017-Dec-17 00:41 UTC. Time now 2017-Dec-17 10:10 UTC.
Position N 53°29' E 004°46'.

Length 90 m; draft 5.3 m.

Type: Ship. MMSI: 212376000.

Date/timePositionNaut miles runAvg speedWind from/ knotsBaromVisibWave heightAir tempDewpointWater temp
2017-Dec-17 00:41N 53°29' E 004°46'210.9
2017-Dec-17 00:29N 53°30' E 004°49'107 9.4
2017-Dec-16 13:11N 53°54' E 007°45'310.0
2017-Dec-16 12:56N 53°53' E 007°48'511.4
2017-Dec-16 12:30N 53°52' E 007°56'611.7
2017-Dec-16 12:00N 53°50' E 008°06'612.2
2017-Dec-16 11:30N 53°45' E 008°12'611.5
2017-Dec-16 11:00N 53°42' E 008°20'510.0
2017-Dec-16 10:30N 53°38' E 008°26'5 9.6
2017-Dec-16 10:01N 53°35' E 008°32'4 7.8
2017-Dec-16 09:30N 53°31' E 008°33'4 8.5
2017-Dec-16 09:01N 53°27' E 008°30'5 8.9
2017-Dec-16 08:30N 53°23' E 008°30'1 3.0
2017-Dec-16 08:01N 53°21' E 008°30'0 0.0
2017-Dec-16 07:28N 53°21' E 008°30'0 0.0
2017-Dec-16 07:00N 53°21' E 008°30'0 0.0
2017-Dec-16 06:30N 53°21' E 008°30'0 0.0
2017-Dec-16 06:00N 53°21' E 008°30'0 0.0
2017-Dec-16 05:31N 53°21' E 008°30'0 0.0
2017-Dec-16 05:01N 53°21' E 008°30'0 0.0
2017-Dec-16 04:30N 53°21' E 008°30'0 0.0
2017-Dec-16 04:00N 53°21' E 008°30'0 0.0
2017-Dec-16 03:30N 53°21' E 008°30'0 0.0
2017-Dec-16 03:00N 53°21' E 008°30'0 0.0
2017-Dec-16 02:30N 53°21' E 008°30'0 0.0
2017-Dec-16 02:00N 53°21' E 008°30'0 0.0
2017-Dec-16 01:31N 53°21' E 008°30'0 0.0
2017-Dec-16 01:01N 53°21' E 008°30'0 0.0
2017-Dec-16 00:30N 53°21' E 008°30'0 0.0
2017-Dec-16 00:00N 53°21' E 008°30'0 0.0
2017-Dec-15 23:31N 53°21' E 008°30'0 0.0
2017-Dec-15 23:00N 53°21' E 008°30'0 0.0
2017-Dec-15 22:30N 53°21' E 008°30'0 0.0
2017-Dec-15 22:00N 53°21' E 008°30'0 0.0
2017-Dec-15 21:30N 53°21' E 008°30'0 0.0
2017-Dec-15 21:01N 53°21' E 008°30'0 0.0
2017-Dec-15 20:30N 53°21' E 008°30'0 0.0
2017-Dec-15 20:00N 53°21' E 008°30'0 0.0
2017-Dec-15 19:30N 53°21' E 008°30'0 0.0
2017-Dec-15 19:00N 53°21' E 008°30'0 0.0
2017-Dec-15 18:31N 53°21' E 008°30'0 0.0
2017-Dec-15 18:00N 53°21' E 008°30'0 0.0
2017-Dec-15 17:30N 53°21' E 008°30'0 0.0
2017-Dec-15 17:00N 53°21' E 008°30'0 0.0
2017-Dec-15 16:30N 53°21' E 008°30'0 0.0
2017-Dec-15 16:00N 53°21' E 008°30'0 0.0
2017-Dec-15 15:30N 53°21' E 008°30'0 0.0
2017-Dec-15 15:00N 53°21' E 008°30'0 0.0
2017-Dec-15 14:30N 53°21' E 008°30'0 0.0
2017-Dec-15 14:00N 53°21' E 008°30'0 0.0
2017-Dec-15 13:30N 53°21' E 008°30'0 0.0
2017-Dec-15 13:00N 53°21' E 008°30'0 0.0
2017-Dec-15 12:30N 53°21' E 008°30'0 0.0
2017-Dec-15 12:00N 53°21' E 008°30'0 0.0
2017-Dec-15 11:31N 53°21' E 008°30'0 0.0
2017-Dec-15 11:01N 53°21' E 008°30'0 0.0
2017-Dec-15 10:31N 53°21' E 008°30'0 0.0
2017-Dec-15 10:00N 53°21' E 008°30'0 0.0
2017-Dec-15 09:30N 53°21' E 008°30'0 0.0
2017-Dec-15 09:00N 53°21' E 008°30'0 0.0
2017-Dec-15 08:30N 53°21' E 008°30'0 0.0
2017-Dec-15 08:00N 53°21' E 008°30'0 0.0
2017-Dec-15 07:31N 53°21' E 008°30'0 0.0
2017-Dec-15 07:00N 53°21' E 008°30'0 0.0
2017-Dec-15 06:31N 53°21' E 008°30'0 0.0
2017-Dec-15 06:00N 53°21' E 008°30'0 0.0
2017-Dec-15 05:31N 53°21' E 008°30'0 0.0
2017-Dec-15 05:01N 53°21' E 008°30'0 0.0
2017-Dec-15 04:30N 53°21' E 008°30'0 0.0
2017-Dec-15 04:00N 53°21' E 008°30'0 0.0
2017-Dec-15 02:30N 53°21' E 008°30'0 0.0
2017-Dec-15 01:00N 53°21' E 008°30'0 0.0
2017-Dec-15 00:30N 53°21' E 008°30'32 5.3
2017-Dec-14 18:30N 53°49' E 008°05'613.2
2017-Dec-14 18:00N 53°51' E 007°55'27311.8
2017-Dec-13 18:55N 53°33' E 000°15'513.1
2017-Dec-13 18:30N 53°34' E 000°06'713.5
2017-Dec-13 18:00N 53°36' W 000°04'713.3
2017-Dec-13 17:30N 53°41' W 000°13'611.4
2017-Dec-13 17:00N 53°43' W 000°22'611.8
2017-Dec-13 16:30N 53°41' W 000°31'  
2017-Dec-09 22:02N 53°42' W 000°40'1 8.6
2017-Dec-09 21:56N 53°43' W 000°39'4 9.2
2017-Dec-09 21:30N 53°41' W 000°33'4 8.3
2017-Dec-09 21:00N 53°42' W 000°26'510.1
2017-Dec-09 20:30N 53°44' W 000°18'4 8.8
2017-Dec-09 20:00N 53°40' W 000°13'511.0
2017-Dec-09 19:30N 53°37' W 000°05'4 8.3
2017-Dec-09 18:59N 53°35' E 000°01'4 7.5
2017-Dec-09 18:27N 53°34' E 000°08'3 6.3
2017-Dec-09 18:00N 53°33' E 000°12'174 4.8
2017-Dec-08 05:34N 54°05' E 005°02'1 7.4
2017-Dec-08 05:29N 54°05' E 005°03'3 7.1
2017-Dec-08 05:01N 54°06' E 005°09'3 5.9
2017-Dec-08 04:30N 54°06' E 005°14'3 6.0
2017-Dec-08 03:59N 54°07' E 005°19'3 5.7
2017-Dec-08 03:29N 54°07' E 005°24'3 5.5
2017-Dec-08 03:00N 54°07' E 005°28'3 5.0
2017-Dec-08 02:27N 54°08' E 005°33'109 5.5
2017-Dec-07 06:35N 53°57' E 008°38'114.4
2017-Dec-07 06:30N 53°57' E 008°39'714.1
2017-Dec-07 06:00N 53°51' E 008°46'612.5
2017-Dec-07 05:30N 53°51' E 008°57'611.4
2017-Dec-07 05:00N 53°53' E 009°06'2 3.7
2017-Dec-07 04:30N 53°54' E 009°09'0 0.3
2017-Dec-07 04:01N 53°54' E 009°09'3 5.7
2017-Dec-07 03:30N 53°56' E 009°12'4 8.4
2017-Dec-07 03:01N 53°59' E 009°17'3 6.8
2017-Dec-07 02:30N 54°02' E 009°18'0 0.3
2017-Dec-07 02:00N 54°03' E 009°18'2 4.9
2017-Dec-07 01:30N 54°05' E 009°19'4 7.9
2017-Dec-07 01:00N 54°09' E 009°21'  
Track history (hours):
 
Tides and Currents Weather Stations Pressure Air Temp Water Temp Dewpoint Dewpoint Depression Visibility Wind Speed Wind Dir Waves Ship Positions

Marten

Last reported at 2017-Dec-17 00:41 UTC. Time now 2017-Dec-17 10:10 UTC.
Position N 53°29' E 004°46'.

Length 90 m; draft 5.3 m.

Type: Ship. MMSI: 212376000.

Date/timePositionNaut miles runAvg speedWind from/ knotsBaromVisibWave heightAir tempDewpointWater temp
2017-Dec-17 00:41N 53°29' E 004°46'210.9
2017-Dec-17 00:29N 53°30' E 004°49'107 9.4
2017-Dec-16 13:11N 53°54' E 007°45'310.0
2017-Dec-16 12:56N 53°53' E 007°48'511.4
2017-Dec-16 12:30N 53°52' E 007°56'611.7
2017-Dec-16 12:00N 53°50' E 008°06'612.2
2017-Dec-16 11:30N 53°45' E 008°12'611.5
2017-Dec-16 11:00N 53°42' E 008°20'510.0
2017-Dec-16 10:30N 53°38' E 008°26'5 9.6
2017-Dec-16 10:01N 53°35' E 008°32'4 7.8
2017-Dec-16 09:30N 53°31' E 008°33'4 8.5
2017-Dec-16 09:01N 53°27' E 008°30'5 8.9
2017-Dec-16 08:30N 53°23' E 008°30'1 3.0
2017-Dec-16 08:01N 53°21' E 008°30'0 0.0
2017-Dec-16 07:28N 53°21' E 008°30'0 0.0
2017-Dec-16 07:00N 53°21' E 008°30'0 0.0
2017-Dec-16 06:30N 53°21' E 008°30'0 0.0
2017-Dec-16 06:00N 53°21' E 008°30'0 0.0
2017-Dec-16 05:31N 53°21' E 008°30'0 0.0
2017-Dec-16 05:01N 53°21' E 008°30'0 0.0
2017-Dec-16 04:30N 53°21' E 008°30'0 0.0
2017-Dec-16 04:00N 53°21' E 008°30'0 0.0
2017-Dec-16 03:30N 53°21' E 008°30'0 0.0
2017-Dec-16 03:00N 53°21' E 008°30'0 0.0
2017-Dec-16 02:30N 53°21' E 008°30'0 0.0
2017-Dec-16 02:00N 53°21' E 008°30'0 0.0
2017-Dec-16 01:31N 53°21' E 008°30'0 0.0
2017-Dec-16 01:01N 53°21' E 008°30'0 0.0
2017-Dec-16 00:30N 53°21' E 008°30'0 0.0
2017-Dec-16 00:00N 53°21' E 008°30'0 0.0
2017-Dec-15 23:31N 53°21' E 008°30'0 0.0
2017-Dec-15 23:00N 53°21' E 008°30'0 0.0
2017-Dec-15 22:30N 53°21' E 008°30'0 0.0
2017-Dec-15 22:00N 53°21' E 008°30'0 0.0
2017-Dec-15 21:30N 53°21' E 008°30'0 0.0
2017-Dec-15 21:01N 53°21' E 008°30'0 0.0
2017-Dec-15 20:30N 53°21' E 008°30'0 0.0
2017-Dec-15 20:00N 53°21' E 008°30'0 0.0
2017-Dec-15 19:30N 53°21' E 008°30'0 0.0
2017-Dec-15 19:00N 53°21' E 008°30'0 0.0
2017-Dec-15 18:31N 53°21' E 008°30'0 0.0
2017-Dec-15 18:00N 53°21' E 008°30'0 0.0
2017-Dec-15 17:30N 53°21' E 008°30'0 0.0
2017-Dec-15 17:00N 53°21' E 008°30'0 0.0
2017-Dec-15 16:30N 53°21' E 008°30'0 0.0
2017-Dec-15 16:00N 53°21' E 008°30'0 0.0
2017-Dec-15 15:30N 53°21' E 008°30'0 0.0
2017-Dec-15 15:00N 53°21' E 008°30'0 0.0
2017-Dec-15 14:30N 53°21' E 008°30'0 0.0
2017-Dec-15 14:00N 53°21' E 008°30'0 0.0
2017-Dec-15 13:30N 53°21' E 008°30'0 0.0
2017-Dec-15 13:00N 53°21' E 008°30'0 0.0
2017-Dec-15 12:30N 53°21' E 008°30'0 0.0
2017-Dec-15 12:00N 53°21' E 008°30'0 0.0
2017-Dec-15 11:31N 53°21' E 008°30'0 0.0
2017-Dec-15 11:01N 53°21' E 008°30'0 0.0
2017-Dec-15 10:31N 53°21' E 008°30'0 0.0
2017-Dec-15 10:00N 53°21' E 008°30'0 0.0
2017-Dec-15 09:30N 53°21' E 008°30'0 0.0
2017-Dec-15 09:00N 53°21' E 008°30'0 0.0
2017-Dec-15 08:30N 53°21' E 008°30'0 0.0
2017-Dec-15 08:00N 53°21' E 008°30'0 0.0
2017-Dec-15 07:31N 53°21' E 008°30'0 0.0
2017-Dec-15 07:00N 53°21' E 008°30'0 0.0
2017-Dec-15 06:31N 53°21' E 008°30'0 0.0
2017-Dec-15 06:00N 53°21' E 008°30'0 0.0
2017-Dec-15 05:31N 53°21' E 008°30'0 0.0
2017-Dec-15 05:01N 53°21' E 008°30'0 0.0
2017-Dec-15 04:30N 53°21' E 008°30'0 0.0
2017-Dec-15 04:00N 53°21' E 008°30'0 0.0
2017-Dec-15 02:30N 53°21' E 008°30'0 0.0
2017-Dec-15 01:00N 53°21' E 008°30'0 0.0
2017-Dec-15 00:30N 53°21' E 008°30'32 5.3
2017-Dec-14 18:30N 53°49' E 008°05'613.2
2017-Dec-14 18:00N 53°51' E 007°55'27311.8
2017-Dec-13 18:55N 53°33' E 000°15'513.1
2017-Dec-13 18:30N 53°34' E 000°06'713.5
2017-Dec-13 18:00N 53°36' W 000°04'713.3
2017-Dec-13 17:30N 53°41' W 000°13'611.4
2017-Dec-13 17:00N 53°43' W 000°22'611.8
2017-Dec-13 16:30N 53°41' W 000°31'  
2017-Dec-09 22:02N 53°42' W 000°40'1 8.6
2017-Dec-09 21:56N 53°43' W 000°39'4 9.2
2017-Dec-09 21:30N 53°41' W 000°33'4 8.3
2017-Dec-09 21:00N 53°42' W 000°26'510.1
2017-Dec-09 20:30N 53°44' W 000°18'4 8.8
2017-Dec-09 20:00N 53°40' W 000°13'511.0
2017-Dec-09 19:30N 53°37' W 000°05'4 8.3
2017-Dec-09 18:59N 53°35' E 000°01'4 7.5
2017-Dec-09 18:27N 53°34' E 000°08'3 6.3
2017-Dec-09 18:00N 53°33' E 000°12'174 4.8
2017-Dec-08 05:34N 54°05' E 005°02'1 7.4
2017-Dec-08 05:29N 54°05' E 005°03'3 7.1
2017-Dec-08 05:01N 54°06' E 005°09'3 5.9
2017-Dec-08 04:30N 54°06' E 005°14'3 6.0
2017-Dec-08 03:59N 54°07' E 005°19'3 5.7
2017-Dec-08 03:29N 54°07' E 005°24'3 5.5
2017-Dec-08 03:00N 54°07' E 005°28'3 5.0
2017-Dec-08 02:27N 54°08' E 005°33'109 5.5
2017-Dec-07 06:35N 53°57' E 008°38'114.4
2017-Dec-07 06:30N 53°57' E 008°39'714.1
2017-Dec-07 06:00N 53°51' E 008°46'612.5
2017-Dec-07 05:30N 53°51' E 008°57'611.4
2017-Dec-07 05:00N 53°53' E 009°06'2 3.7
2017-Dec-07 04:30N 53°54' E 009°09'0 0.3
2017-Dec-07 04:01N 53°54' E 009°09'3 5.7
2017-Dec-07 03:30N 53°56' E 009°12'4 8.4
2017-Dec-07 03:01N 53°59' E 009°17'3 6.8
2017-Dec-07 02:30N 54°02' E 009°18'0 0.3
2017-Dec-07 02:00N 54°03' E 009°18'2 4.9
2017-Dec-07 01:30N 54°05' E 009°19'4 7.9
2017-Dec-07 01:00N 54°09' E 009°21'  

Dump ship's entire track history